Time;durP1;ratioP1;P1;durP2;ratioP2;P2;SDS_P1;SDS_P2;PMS_P1;PMS_P2;Temp;Humidity;BMP_temperature;BMP_pressure;BME280_temperature;BME280_humidity;BME280_pressure;Samples;Min_cycle;Max_cycle;Signal;HPM_P1;HPM_P2
2022/07/18 00:01:45;;;;;;;6.30;3.80;;;16.20;98.50;;;;;;5070708;28;20938;-67
2022/07/18 00:04:12;;;;;;;4.70;3.43;;;16.10;99.90;;;;;;5071609;28;20467;-66
2022/07/18 00:06:39;;;;;;;7.90;4.20;;;15.90;99.90;;;;;;5070811;28;20475;-67
2022/07/18 00:09:05;;;;;;;7.13;3.30;;;15.80;99.90;;;;;;5071499;28;20444;-67
2022/07/18 00:11:33;;;;;;;6.37;3.83;;;15.80;99.90;;;;;;5070556;28;20475;-66
2022/07/18 00:13:59;;;;;;;5.70;4.03;;;15.70;99.90;;;;;;5071160;28;20478;-68
2022/07/18 00:16:28;;;;;;;4.53;3.63;;;15.60;99.90;;;;;;5070989;28;20450;-67
2022/07/18 00:18:57;;;;;;;5.37;4.10;;;15.60;99.90;;;;;;5071286;28;20564;-67
2022/07/18 00:21:24;;;;;;;5.97;3.83;;;15.60;99.90;;;;;;5070431;28;20461;-67
2022/07/18 00:23:51;;;;;;;7.20;3.60;;;15.60;99.60;;;;;;5071007;28;20501;-67
2022/07/18 00:26:17;;;;;;;5.10;3.77;;;15.60;99.60;;;;;;5070631;28;20443;-69
2022/07/18 00:28:44;;;;;;;5.40;3.23;;;15.60;99.90;;;;;;5071208;28;21078;-65
2022/07/18 00:31:11;;;;;;;6.10;3.83;;;15.50;99.90;;;;;;5070272;28;20447;-68
2022/07/18 00:33:39;;;;;;;8.40;3.90;;;15.50;99.80;;;;;;5071193;28;20446;-67
2022/07/18 00:36:06;;;;;;;5.00;3.40;;;15.50;99.90;;;;;;5070595;28;20454;-68
2022/07/18 00:38:33;;;;;;;10.83;3.83;;;15.40;99.90;;;;;;5070812;28;20462;-69
2022/07/18 00:41:00;;;;;;;7.40;4.17;;;15.40;99.90;;;;;;5070064;28;20461;-67
2022/07/18 00:43:27;;;;;;;5.33;3.40;;;15.50;99.90;;;;;;5071345;28;20454;-66
2022/07/18 00:45:54;;;;;;;6.90;4.13;;;15.50;99.90;;;;;;5071771;28;20458;-66
2022/07/18 00:48:21;;;;;;;6.23;3.83;;;15.40;99.90;;;;;;5071586;28;20454;-65
2022/07/18 00:50:50;;;;;;;7.57;3.33;;;15.30;99.90;;;;;;5069728;28;20450;-68
2022/07/18 00:53:17;;;;;;;5.20;3.27;;;15.30;99.90;;;;;;5070469;28;20831;-66
2022/07/18 00:55:46;;;;;;;6.43;3.50;;;15.10;99.90;;;;;;5070103;28;20459;-65
2022/07/18 00:58:13;;;;;;;5.20;3.83;;;15.10;99.90;;;;;;5070660;28;20520;-66
2022/07/18 01:03:24;;;;;;;12.67;5.30;;;15.00;99.90;;;;;;5070661;28;20485;-65
2022/07/18 01:05:53;;;;;;;6.73;3.50;;;15.00;99.90;;;;;;5070247;28;20451;-64
2022/07/18 01:08:20;;;;;;;5.30;3.30;;;14.90;99.90;;;;;;5070689;28;20455;-67
2022/07/18 01:10:46;;;;;;;5.93;3.90;;;14.90;99.90;;;;;;5069787;28;20447;-66
2022/07/18 01:13:13;;;;;;;7.43;3.17;;;14.80;99.90;;;;;;5070406;28;20456;-66
2022/07/18 01:15:40;;;;;;;3.73;2.90;;;14.80;99.90;;;;;;5069918;28;20471;-67
2022/07/18 01:18:07;;;;;;;4.40;3.57;;;14.80;99.90;;;;;;5069966;28;20454;-67
2022/07/18 01:20:35;;;;;;;5.57;3.60;;;14.90;99.90;;;;;;5068623;28;20475;-66
2022/07/18 01:23:02;;;;;;;5.30;3.87;;;14.90;99.90;;;;;;5070369;28;20451;-66
2022/07/18 01:25:29;;;;;;;3.97;3.30;;;14.90;99.90;;;;;;5069741;28;20471;-66
2022/07/18 01:27:56;;;;;;;5.20;3.10;;;14.90;99.90;;;;;;5070124;28;20868;-66
2022/07/18 01:30:24;;;;;;;9.37;4.20;;;14.90;99.90;;;;;;5069225;28;20447;-68
2022/07/18 01:32:57;;;;;;;5.20;4.07;;;14.80;99.90;;;;;;5070016;28;20443;-64
2022/07/18 01:35:24;;;;;;;4.47;3.60;;;14.70;99.90;;;;;;5069512;28;20474;-68
2022/07/18 01:37:53;;;;;;;5.83;3.50;;;14.60;99.90;;;;;;5069871;28;20451;-66
2022/07/18 01:40:19;;;;;;;5.10;3.67;;;14.50;99.90;;;;;;5069052;28;20479;-69
2022/07/18 01:42:46;;;;;;;5.20;3.73;;;14.50;99.90;;;;;;5069927;28;20827;-67
2022/07/18 01:45:13;;;;;;;5.77;3.40;;;14.50;99.90;;;;;;5069380;28;20459;-67
2022/07/18 01:47:40;;;;;;;5.40;3.47;;;14.50;99.90;;;;;;5069789;28;20451;-67
2022/07/18 01:50:08;;;;;;;5.40;4.33;;;14.40;99.90;;;;;;5069272;28;20443;-66
2022/07/18 01:52:35;;;;;;;5.00;3.50;;;14.40;99.90;;;;;;5069749;28;20941;-66
2022/07/18 01:55:06;;;;;;;4.23;3.83;;;14.30;99.90;;;;;;5069215;28;20470;-67
2022/07/18 01:57:32;;;;;;;5.17;3.70;;;14.30;99.90;;;;;;5069669;28;20466;-68
2022/07/18 01:59:59;;;;;;;4.63;3.00;;;14.30;99.90;;;;;;5068749;28;21200;-66
2022/07/18 02:02:26;;;;;;;6.83;3.83;;;14.30;99.90;;;;;;5069470;28;20945;-68
2022/07/18 02:05:02;;;;;;;4.53;3.87;;;14.20;99.90;;;;;;5069125;28;20836;-66
2022/07/18 02:07:31;;;;;;;7.90;3.60;;;14.30;99.90;;;;;;5069636;28;20455;-67
2022/07/18 02:09:59;;;;;;;4.07;3.40;;;14.20;99.90;;;;;;5068834;28;20454;-64
2022/07/18 02:12:27;;;;;;;6.23;3.13;;;14.00;99.90;;;;;;5069307;28;20455;-66
2022/07/18 02:14:54;;;;;;;5.70;3.60;;;14.00;99.90;;;;;;5069251;28;20821;-66
2022/07/18 02:17:21;;;;;;;5.27;4.03;;;14.00;99.90;;;;;;5069501;28;20450;-67
2022/07/18 02:19:48;;;;;;;6.57;3.40;;;14.00;99.90;;;;;;5068860;28;20489;-67
2022/07/18 02:22:15;;;;;;;5.03;3.40;;;13.90;99.90;;;;;;5069726;28;20447;-65
2022/07/18 02:24:41;;;;;;;5.70;3.80;;;13.90;99.90;;;;;;5069640;28;20474;-66
2022/07/18 02:27:09;;;;;;;6.90;3.80;;;13.90;99.90;;;;;;5069242;28;20447;-66
2022/07/18 02:29:37;;;;;;;4.03;3.57;;;13.90;99.90;;;;;;5069388;28;20447;-66
2022/07/18 02:32:05;;;;;;;5.80;4.03;;;13.90;99.90;;;;;;5073460;28;20446;-66
2022/07/18 02:34:31;;;;;;;5.17;3.83;;;13.80;99.90;;;;;;5072937;28;20474;-66
2022/07/18 02:36:58;;;;;;;4.63;3.77;;;13.80;99.90;;;;;;5073146;28;20814;-66
2022/07/18 02:39:25;;;;;;;10.80;4.10;;;13.80;99.90;;;;;;5073189;28;20451;-68
2022/07/18 02:41:52;;;;;;;7.33;4.00;;;13.70;99.90;;;;;;5072738;28;20439;-66
2022/07/18 02:44:19;;;;;;;5.83;4.40;;;13.70;99.90;;;;;;5072731;28;20494;-64
2022/07/18 02:46:48;;;;;;;5.53;4.07;;;13.70;99.90;;;;;;5073177;28;20447;-63
2022/07/18 02:49:27;;;;;;;4.20;3.60;;;13.60;99.90;;;;;;5072843;28;20944;-66
2022/07/18 02:51:55;;;;;;;4.27;3.53;;;13.60;99.90;;;;;;5072462;28;20504;-67
2022/07/18 02:54:22;;;;;;;7.30;4.50;;;13.50;99.90;;;;;;5072358;28;20471;-67
2022/07/18 02:56:49;;;;;;;6.63;4.20;;;13.50;99.90;;;;;;5072956;28;20446;-68
2022/07/18 02:59:16;;;;;;;5.57;4.33;;;13.50;99.90;;;;;;5072772;28;20439;-64
2022/07/18 03:01:42;;;;;;;5.47;4.83;;;13.40;99.90;;;;;;5072083;28;20447;-65
2022/07/18 03:04:11;;;;;;;10.10;4.10;;;13.50;99.90;;;;;;5072589;28;20470;-68
2022/07/18 03:06:37;;;;;;;4.40;3.30;;;13.50;99.90;;;;;;5072280;28;20833;-67
2022/07/18 03:09:05;;;;;;;5.60;4.27;;;13.50;99.90;;;;;;5072745;28;20447;-67
2022/07/18 03:11:32;;;;;;;4.90;3.60;;;13.40;99.90;;;;;;5072017;28;20442;-64
2022/07/18 03:13:59;;;;;;;6.07;4.23;;;13.40;99.90;;;;;;5072534;28;20472;-64
2022/07/18 03:16:26;;;;;;;5.83;3.90;;;13.50;99.90;;;;;;5072341;28;20451;-67
2022/07/18 03:18:53;;;;;;;8.67;4.30;;;13.50;99.90;;;;;;5072400;28;20447;-66
2022/07/18 03:21:22;;;;;;;4.93;4.30;;;13.40;99.90;;;;;;5071483;28;21026;-67
2022/07/18 03:23:49;;;;;;;4.90;4.33;;;13.30;99.90;;;;;;5072648;28;20473;-68
2022/07/18 03:26:15;;;;;;;8.13;4.00;;;13.30;99.90;;;;;;5072042;28;20821;-66
2022/07/18 03:28:42;;;;;;;5.93;3.67;;;13.20;99.90;;;;;;5072378;28;20447;-68
2022/07/18 03:31:09;;;;;;;9.53;3.67;;;13.20;99.90;;;;;;5071473;28;20457;-67
2022/07/18 03:33:36;;;;;;;6.97;4.07;;;13.30;99.90;;;;;;5072076;28;20836;-66
2022/07/18 03:36:03;;;;;;;6.93;4.20;;;13.30;99.90;;;;;;5071786;28;20466;-67
2022/07/18 03:38:31;;;;;;;7.23;3.87;;;13.30;99.90;;;;;;5072201;28;20447;-64
2022/07/18 03:40:58;;;;;;;7.20;3.73;;;13.20;99.90;;;;;;5070918;28;21004;-66
2022/07/18 03:43:25;;;;;;;6.93;3.53;;;13.20;99.90;;;;;;5070713;28;20482;-65
2022/07/18 03:45:52;;;;;;;5.13;3.63;;;13.20;99.90;;;;;;5071664;28;20945;-66
2022/07/18 03:48:19;;;;;;;4.93;3.60;;;13.10;99.90;;;;;;5071794;28;20447;-66
2022/07/18 03:50:46;;;;;;;4.30;3.33;;;13.20;99.90;;;;;;5070950;28;20458;-65
2022/07/18 03:53:12;;;;;;;7.50;3.97;;;13.30;99.90;;;;;;5072024;28;20435;-66
2022/07/18 03:55:41;;;;;;;6.63;4.00;;;13.30;99.90;;;;;;5071166;28;20467;-68
2022/07/18 03:58:07;;;;;;;5.57;3.80;;;13.30;99.90;;;;;;5071811;28;20552;-68
2022/07/18 04:00:34;;;;;;;4.43;3.17;;;13.30;99.90;;;;;;5070587;28;20479;-66
2022/07/18 04:03:01;;;;;;;6.13;3.70;;;13.30;99.90;;;;;;5071500;28;21009;-66
2022/07/18 04:05:28;;;;;;;7.13;3.50;;;13.20;99.90;;;;;;5071383;28;20471;-67
2022/07/18 04:07:55;;;;;;;4.00;3.30;;;13.20;99.90;;;;;;5071617;28;20451;-67
2022/07/18 04:10:21;;;;;;;4.10;3.40;;;13.30;99.90;;;;;;5070759;28;20442;-65
2022/07/18 04:12:52;;;;;;;4.53;4.13;;;13.30;99.90;;;;;;5071312;28;20451;-67
2022/07/18 04:15:20;;;;;;;5.10;3.43;;;13.30;99.90;;;;;;5070926;28;21049;-67
2022/07/18 04:17:47;;;;;;;5.83;3.80;;;13.30;99.90;;;;;;5071423;28;20443;-66
2022/07/18 04:20:15;;;;;;;8.30;4.07;;;13.40;99.90;;;;;;5070728;28;20471;-66
2022/07/18 04:22:47;;;;;;;5.30;3.50;;;13.50;99.90;;;;;;5071353;28;20450;-65
2022/07/18 04:25:14;;;;;;;4.10;3.30;;;13.60;99.90;;;;;;5070986;28;20467;-66
2022/07/18 04:27:41;;;;;;;5.60;3.57;;;13.60;99.90;;;;;;5071201;28;20892;-65
2022/07/18 04:30:10;;;;;;;5.33;3.60;;;13.60;99.90;;;;;;5070552;28;20451;-68
2022/07/18 04:32:37;;;;;;;9.00;4.13;;;13.60;99.90;;;;;;5069314;28;20482;-67
2022/07/18 04:35:06;;;;;;;5.00;4.30;;;13.70;99.90;;;;;;5066318;28;21189;-67
2022/07/18 04:37:32;;;;;;;5.60;3.70;;;13.80;99.90;;;;;;5057965;28;20461;-66
2022/07/18 04:39:59;;;;;;;3.80;3.40;;;13.90;99.90;;;;;;5066349;28;20462;-66
2022/07/18 04:42:26;;;;;;;4.07;3.67;;;14.00;99.90;;;;;;5068694;28;20447;-67
2022/07/18 04:44:53;;;;;;;6.90;4.43;;;14.00;99.90;;;;;;5067157;28;20467;-67
2022/07/18 04:47:21;;;;;;;5.10;4.13;;;14.10;99.90;;;;;;5066300;28;20452;-65
2022/07/18 04:49:48;;;;;;;5.97;4.23;;;14.10;99.90;;;;;;5077175;28;20445;-61
2022/07/18 04:52:15;;;;;;;6.80;4.80;;;14.10;99.90;;;;;;5053926;28;20439;-63
2022/07/18 04:54:42;;;;;;;5.57;3.63;;;14.20;99.90;;;;;;5069357;28;20477;-66
2022/07/18 04:57:11;;;;;;;5.53;4.20;;;14.20;99.90;;;;;;5070350;28;20488;-64
2022/07/18 04:59:38;;;;;;;9.70;4.63;;;14.40;99.90;;;;;;5070288;28;20475;-67
2022/07/18 05:02:05;;;;;;;6.97;3.70;;;14.40;99.90;;;;;;5069826;28;20566;-66
2022/07/18 05:04:33;;;;;;;6.07;3.80;;;14.50;99.90;;;;;;5069835;28;20474;-63
2022/07/18 05:06:59;;;;;;;9.83;4.77;;;14.60;99.90;;;;;;5070010;28;20444;-67
2022/07/18 05:09:26;;;;;;;4.40;4.00;;;14.60;99.90;;;;;;5070160;28;20542;-65
2022/07/18 05:11:53;;;;;;;5.63;3.07;;;14.80;99.90;;;;;;5069086;28;20446;-67
2022/07/18 05:14:20;;;;;;;4.60;3.77;;;14.90;99.90;;;;;;5069681;28;20506;-66
2022/07/18 05:16:47;;;;;;;4.60;3.80;;;14.90;99.90;;;;;;5069124;28;20929;-66
2022/07/18 05:19:15;;;;;;;5.33;3.83;;;15.00;99.90;;;;;;5065826;28;20447;-68
2022/07/18 05:21:43;;;;;;;3.40;2.90;;;15.10;99.90;;;;;;5065101;28;20489;-64
2022/07/18 05:24:10;;;;;;;7.67;3.37;;;15.10;99.90;;;;;;5061228;28;20467;-68
2022/07/18 05:26:37;;;;;;;5.90;3.60;;;15.20;99.90;;;;;;5057780;28;20451;-69
2022/07/18 05:29:03;;;;;;;4.53;3.10;;;15.30;99.90;;;;;;5068472;28;20451;-66
2022/07/18 05:31:30;;;;;;;4.37;3.13;;;15.40;99.90;;;;;;5063172;28;20443;-66
2022/07/18 05:33:57;;;;;;;5.80;3.87;;;15.50;99.90;;;;;;5069552;28;20525;-66
2022/07/18 05:36:24;;;;;;;5.33;3.60;;;15.60;99.90;;;;;;5069406;28;20459;-67
2022/07/18 05:38:52;;;;;;;4.50;3.07;;;15.70;99.90;;;;;;5069471;28;20439;-68
2022/07/18 05:41:19;;;;;;;4.90;3.40;;;15.80;99.90;;;;;;5069218;28;20481;-68
2022/07/18 05:43:46;;;;;;;4.93;3.10;;;16.00;99.90;;;;;;5069704;28;20565;-66
2022/07/18 05:46:13;;;;;;;5.80;3.77;;;16.10;99.90;;;;;;5069306;28;20447;-63
2022/07/18 05:48:40;;;;;;;5.00;3.50;;;16.30;99.90;;;;;;5069834;28;20453;-68
2022/07/18 05:51:07;;;;;;;4.60;3.30;;;16.40;99.90;;;;;;5068921;28;20439;-66
2022/07/18 05:53:34;;;;;;;7.30;3.97;;;16.50;99.90;;;;;;5069679;28;20454;-66
2022/07/18 05:56:02;;;;;;;4.07;3.20;;;16.60;99.90;;;;;;5069270;28;20469;-66
2022/07/18 05:58:29;;;;;;;4.60;3.57;;;16.70;99.90;;;;;;5068751;28;20809;-66
2022/07/18 06:00:56;;;;;;;5.40;3.53;;;16.80;99.90;;;;;;5068842;28;20484;-68
2022/07/18 06:03:23;;;;;;;7.30;3.37;;;16.90;99.90;;;;;;5069632;28;20462;-66
2022/07/18 06:05:50;;;;;;;4.73;3.10;;;17.00;99.90;;;;;;5068481;28;20508;-68
2022/07/18 06:08:17;;;;;;;6.90;3.30;;;17.10;99.90;;;;;;5069805;28;20451;-66
2022/07/18 06:10:44;;;;;;;5.57;3.80;;;17.20;99.90;;;;;;5068591;28;20447;-67
2022/07/18 06:13:12;;;;;;;4.37;3.13;;;17.40;99.90;;;;;;5069672;28;20473;-68
2022/07/18 06:15:39;;;;;;;4.03;3.10;;;17.40;99.90;;;;;;5069786;28;20467;-67
2022/07/18 06:18:05;;;;;;;10.23;4.33;;;17.60;99.90;;;;;;5069777;28;20469;-68
2022/07/18 06:20:32;;;;;;;4.43;3.03;;;17.70;99.90;;;;;;5068239;28;20447;-66
2022/07/18 06:22:59;;;;;;;6.37;2.80;;;17.70;99.90;;;;;;5069609;28;20447;-67
2022/07/18 06:25:26;;;;;;;3.97;3.00;;;17.80;99.90;;;;;;5068924;28;20561;-66
2022/07/18 06:27:53;;;;;;;4.67;2.87;;;18.00;99.90;;;;;;5069334;28;20454;-65
2022/07/18 06:30:23;;;;;;;5.83;2.90;;;18.00;99.90;;;;;;5068452;28;20465;-67
2022/07/18 06:32:49;;;;;;;5.17;3.53;;;18.10;99.90;;;;;;5069144;28;20447;-66
2022/07/18 06:35:16;;;;;;;5.93;3.27;;;18.20;99.90;;;;;;5068283;28;20474;-67
2022/07/18 06:37:43;;;;;;;6.27;3.30;;;18.20;99.90;;;;;;5058025;28;20469;-65
2022/07/18 06:40:11;;;;;;;4.50;3.00;;;18.50;99.90;;;;;;5051939;28;20475;-65
2022/07/18 06:42:38;;;;;;;7.10;3.00;;;18.60;99.90;;;;;;5054330;28;20506;-68
2022/07/18 06:45:07;;;;;;;5.67;3.03;;;18.80;99.90;;;;;;5050996;28;20475;-66
2022/07/18 06:47:35;;;;;;;5.43;2.90;;;19.00;99.90;;;;;;5050088;28;20447;-67
2022/07/18 06:50:02;;;;;;;5.27;3.17;;;19.20;99.90;;;;;;5050482;28;21068;-67
2022/07/18 06:52:29;;;;;;;6.93;3.57;;;19.30;99.90;;;;;;5049991;28;20454;-67
2022/07/18 06:54:56;;;;;;;7.10;4.23;;;19.40;99.90;;;;;;5050839;28;21173;-65
2022/07/18 06:57:23;;;;;;;5.13;3.30;;;19.50;99.90;;;;;;5051897;28;20458;-67
2022/07/18 06:59:49;;;;;;;7.80;3.70;;;19.60;99.90;;;;;;5053329;28;20957;-65
2022/07/18 07:02:16;;;;;;;5.70;3.80;;;19.70;99.90;;;;;;5051660;28;20482;-67
2022/07/18 07:04:44;;;;;;;5.33;3.60;;;19.80;99.90;;;;;;5051845;28;20468;-67
2022/07/18 07:07:12;;;;;;;5.90;3.53;;;19.90;99.90;;;;;;5049687;28;20450;-66
2022/07/18 07:09:38;;;;;;;5.30;3.40;;;20.00;99.90;;;;;;5056820;28;20459;-68
2022/07/18 07:12:05;;;;;;;4.87;3.70;;;20.20;99.90;;;;;;5055257;28;20447;-69
2022/07/18 07:14:32;;;;;;;4.63;3.57;;;20.30;99.90;;;;;;5055417;28;20470;-65
2022/07/18 07:16:59;;;;;;;7.83;4.30;;;20.40;99.90;;;;;;5055575;28;20443;-66
2022/07/18 07:19:26;;;;;;;6.23;4.00;;;20.50;99.90;;;;;;5061346;28;20490;-69
2022/07/18 07:21:54;;;;;;;5.77;4.67;;;20.70;99.90;;;;;;5061253;28;20486;-66
2022/07/18 07:24:21;;;;;;;7.80;3.67;;;20.80;99.90;;;;;;5056131;28;20471;-68
2022/07/18 07:26:48;;;;;;;5.00;3.90;;;21.00;99.90;;;;;;5056813;28;20901;-68
2022/07/18 07:29:16;;;;;;;4.90;4.00;;;21.10;98.90;;;;;;5061352;28;20972;-69
2022/07/18 07:31:43;;;;;;;6.50;3.20;;;21.30;99.60;;;;;;5061855;28;20439;-66
2022/07/18 07:34:10;;;;;;;4.60;3.43;;;21.40;99.20;;;;;;5059120;28;20463;-67
2022/07/18 07:36:37;;;;;;;4.43;3.80;;;21.60;99.30;;;;;;5061882;28;20486;-66
2022/07/18 07:39:06;;;;;;;5.63;3.57;;;21.70;98.60;;;;;;5060715;28;20558;-65
2022/07/18 07:41:33;;;;;;;4.87;3.93;;;21.80;97.80;;;;;;5063121;28;20480;-65
2022/07/18 07:44:01;;;;;;;4.40;3.60;;;21.90;96.00;;;;;;5058748;28;20471;-69
2022/07/18 07:46:28;;;;;;;6.10;3.63;;;22.20;97.00;;;;;;5059109;28;20450;-66
2022/07/18 07:48:54;;;;;;;4.33;3.30;;;22.30;96.00;;;;;;5056564;28;20439;-68
2022/07/18 07:51:21;;;;;;;4.40;3.03;;;22.40;94.70;;;;;;5060182;28;20430;-65
2022/07/18 07:53:48;;;;;;;3.40;3.07;;;22.60;93.50;;;;;;5059512;28;20470;-67
2022/07/18 07:56:18;;;;;;;4.80;3.20;;;22.70;93.50;;;;;;5064907;28;20451;-67
2022/07/18 07:58:45;;;;;;;4.50;3.23;;;22.90;93.00;;;;;;5066246;28;20458;-66
2022/07/18 08:01:14;;;;;;;5.10;4.07;;;23.00;92.10;;;;;;5066115;28;20518;-67
2022/07/18 08:03:41;;;;;;;4.63;3.20;;;23.10;93.10;;;;;;5074338;28;20516;-68
2022/07/18 08:06:08;;;;;;;6.13;3.50;;;23.20;94.00;;;;;;5063367;28;20451;-65
2022/07/18 08:08:35;;;;;;;4.80;3.63;;;23.30;92.80;;;;;;5071311;28;20451;-67
2022/07/18 08:11:01;;;;;;;5.80;3.73;;;23.40;91.70;;;;;;5061868;28;20465;-66
2022/07/18 08:13:30;;;;;;;3.67;3.10;;;23.50;92.30;;;;;;5062162;28;20451;-66
2022/07/18 08:15:56;;;;;;;3.77;3.37;;;23.60;92.00;;;;;;5065244;28;20960;-65
2022/07/18 08:18:23;;;;;;;5.80;3.30;;;23.70;89.70;;;;;;5063959;28;20444;-68
2022/07/18 08:20:50;;;;;;;5.70;3.27;;;23.90;88.50;;;;;;5060784;28;20448;-66
2022/07/18 08:23:17;;;;;;;5.67;3.07;;;24.10;86.10;;;;;;5060613;28;20486;-67
2022/07/18 08:25:46;;;;;;;4.30;2.67;;;24.20;85.20;;;;;;5064809;28;20884;-66
2022/07/18 08:28:13;;;;;;;4.50;3.13;;;24.30;86.50;;;;;;5063409;28;20448;-65
2022/07/18 08:30:42;;;;;;;5.03;3.13;;;24.50;85.70;;;;;;5068323;28;20435;-64
2022/07/18 08:33:09;;;;;;;4.30;2.80;;;24.70;87.20;;;;;;5064414;28;20471;-66
2022/07/18 08:35:35;;;;;;;6.27;3.40;;;24.80;81.50;;;;;;5069500;28;20459;-66
2022/07/18 08:38:03;;;;;;;7.80;3.00;;;25.00;81.40;;;;;;5069255;28;20455;-66
2022/07/18 08:40:30;;;;;;;3.77;3.37;;;25.10;83.80;;;;;;5066473;28;20439;-69
2022/07/18 08:42:58;;;;;;;5.73;2.97;;;25.20;79.80;;;;;;5061764;28;20491;-66
2022/07/18 08:45:26;;;;;;;3.97;2.77;;;25.40;80.70;;;;;;5065240;28;20470;-67
2022/07/18 08:47:54;;;;;;;3.47;2.53;;;25.50;78.60;;;;;;5069184;28;20446;-66
2022/07/18 08:50:21;;;;;;;4.23;2.80;;;25.50;75.10;;;;;;5065569;28;20443;-64
2022/07/18 08:52:49;;;;;;;3.20;2.50;;;25.60;72.70;;;;;;5068269;28;20461;-68
2022/07/18 08:55:16;;;;;;;3.30;3.00;;;25.70;75.30;;;;;;5066272;28;20472;-67
2022/07/18 08:57:43;;;;;;;4.63;2.80;;;25.90;73.50;;;;;;5062209;28;20445;-65
2022/07/18 09:00:11;;;;;;;3.90;2.60;;;26.00;71.90;;;;;;5059077;28;20452;-66
2022/07/18 09:02:38;;;;;;;5.27;3.00;;;26.10;72.10;;;;;;5070276;28;20490;-67
2022/07/18 09:05:19;;;;;;;3.30;2.30;;;26.20;69.50;;;;;;5069977;28;20479;-66
2022/07/18 09:07:46;;;;;;;4.87;2.73;;;26.30;69.20;;;;;;5070251;28;20500;-66
2022/07/18 09:10:13;;;;;;;5.60;2.90;;;26.40;68.00;;;;;;5069746;28;20443;-66
2022/07/18 09:12:55;;;;;;;4.03;3.20;;;26.60;70.60;;;;;;5070066;28;20973;-67
2022/07/18 09:15:22;;;;;;;3.10;2.80;;;26.70;69.30;;;;;;5066149;28;20842;-66
2022/07/18 09:17:51;;;;;;;6.10;2.83;;;26.90;67.80;;;;;;5069631;28;20447;-66
2022/07/18 09:20:19;;;;;;;3.67;2.40;;;27.10;67.60;;;;;;5065515;28;20444;-66
2022/07/18 09:22:48;;;;;;;3.50;2.60;;;27.20;67.80;;;;;;5064992;28;20548;-66
2022/07/18 09:25:17;;;;;;;5.20;2.50;;;27.40;67.40;;;;;;5069621;28;20470;-66
2022/07/18 09:27:45;;;;;;;4.23;2.60;;;27.50;66.30;;;;;;5069968;28;20530;-67
2022/07/18 09:30:16;;;;;;;3.80;2.60;;;27.60;63.10;;;;;;5068942;28;20964;-65
2022/07/18 09:32:44;;;;;;;6.00;3.30;;;27.80;63.00;;;;;;5066920;28;20448;-65
2022/07/18 09:35:13;;;;;;;3.27;2.47;;;28.00;60.30;;;;;;5065944;28;20899;-67
2022/07/18 09:37:52;;;;;;;3.23;2.67;;;28.20;59.90;;;;;;5068614;28;20467;-67
2022/07/18 09:40:21;;;;;;;6.70;2.87;;;28.30;58.60;;;;;;5067858;28;20439;-66
2022/07/18 09:42:50;;;;;;;4.27;2.80;;;28.30;58.70;;;;;;5069623;28;20558;-66
2022/07/18 09:45:22;;;;;;;3.67;2.50;;;28.40;60.20;;;;;;5069382;28;20516;-66
2022/07/18 09:47:51;;;;;;;3.83;2.33;;;28.60;58.70;;;;;;5069761;28;21139;-66
2022/07/18 09:50:25;;;;;;;3.10;2.47;;;28.90;58.80;;;;;;5069070;28;20450;-66
2022/07/18 09:53:05;;;;;;;3.80;2.47;;;29.10;58.80;;;;;;5069281;28;20443;-69
2022/07/18 09:55:33;;;;;;;3.40;2.27;;;29.30;58.40;;;;;;5068513;28;20486;-68
2022/07/18 09:58:02;;;;;;;3.47;2.43;;;29.60;54.60;;;;;;5068031;28;20466;-66
2022/07/18 10:00:31;;;;;;;3.40;2.50;;;30.00;52.00;;;;;;5068708;28;20543;-65
2022/07/18 10:03:00;;;;;;;2.73;2.30;;;30.40;51.90;;;;;;5062890;28;20490;-68
2022/07/18 10:05:31;;;;;;;3.33;2.10;;;31.30;50.20;;;;;;5064366;28;20466;-66
2022/07/18 10:07:59;;;;;;;3.00;2.40;;;32.40;52.50;;;;;;5069519;28;20447;-66
2022/07/18 10:10:28;;;;;;;3.23;2.43;;;33.30;51.30;;;;;;5068652;28;20455;-66
2022/07/18 10:12:58;;;;;;;2.60;2.00;;;33.70;48.40;;;;;;5069376;28;20462;-67
2022/07/18 10:15:26;;;;;;;2.33;1.90;;;34.50;47.30;;;;;;5060376;28;20914;-67
2022/07/18 10:17:54;;;;;;;5.23;2.40;;;35.20;42.70;;;;;;5062373;28;20948;-65
2022/07/18 10:20:28;;;;;;;3.27;1.90;;;34.80;44.00;;;;;;5062040;28;20450;-65
2022/07/18 10:22:57;;;;;;;4.07;1.83;;;35.10;43.70;;;;;;5054605;28;20961;-68
2022/07/18 10:25:25;;;;;;;4.40;1.80;;;35.40;44.30;;;;;;5065257;28;20467;-68
2022/07/18 10:27:55;;;;;;;4.80;2.70;;;36.10;41.80;;;;;;5061739;28;20463;-66
2022/07/18 10:30:32;;;;;;;5.93;2.70;;;36.60;41.80;;;;;;5057160;28;20447;-63
2022/07/18 10:33:00;;;;;;;2.97;2.43;;;36.30;38.40;;;;;;5066301;28;20983;-66
2022/07/18 10:36:04;;;;;;;5.10;2.13;;;35.90;40.80;;;;;;5064778;28;21000;-69
2022/07/18 10:38:31;;;;;;;2.20;1.77;;;35.80;38.10;;;;;;5067637;28;20446;-69
2022/07/18 10:41:12;;;;;;;3.43;1.90;;;35.40;40.80;;;;;;5057491;28;20813;-67
2022/07/18 10:43:43;;;;;;;3.70;2.00;;;35.70;40.70;;;;;;5066028;28;21055;-70
2022/07/18 10:46:11;;;;;;;2.77;2.00;;;36.00;41.90;;;;;;5062511;28;20805;-67
2022/07/18 10:48:56;;;;;;;4.70;2.20;;;36.60;40.50;;;;;;5069664;28;20446;-65
2022/07/18 10:51:34;;;;;;;3.13;1.90;;;36.70;37.30;;;;;;5070073;28;20446;-65
2022/07/18 10:54:06;;;;;;;3.70;1.90;;;36.90;39.60;;;;;;5061774;28;20468;-65
2022/07/18 10:57:10;;;;;;;4.20;2.00;;;37.50;39.20;;;;;;5066650;28;20443;-63
2022/07/18 10:59:40;;;;;;;2.70;2.00;;;37.70;38.80;;;;;;5066966;28;20461;-64
2022/07/18 11:02:08;;;;;;;3.47;2.30;;;37.70;36.80;;;;;;5062234;28;20436;-65
2022/07/18 11:04:40;;;;;;;2.17;1.90;;;37.60;37.10;;;;;;5065927;28;20474;-63
2022/07/18 11:07:12;;;;;;;2.37;1.83;;;37.20;37.60;;;;;;5068246;28;20815;-66
2022/07/18 11:09:42;;;;;;;3.20;2.10;;;37.20;34.50;;;;;;5069241;28;20439;-66
2022/07/18 11:12:22;;;;;;;4.13;2.00;;;36.50;35.80;;;;;;5067717;28;20447;-65
2022/07/18 11:15:13;;;;;;;4.10;1.93;;;36.50;38.00;;;;;;5060117;28;20455;-64
2022/07/18 11:18:02;;;;;;;4.97;1.97;;;36.20;36.70;;;;;;5058611;28;20439;-62
2022/07/18 11:20:42;;;;;;;2.83;2.00;;;36.50;38.90;;;;;;5063646;28;20455;-66
2022/07/18 11:23:20;;;;;;;2.60;2.20;;;36.90;39.90;;;;;;5064397;28;20874;-67
2022/07/18 11:25:48;;;;;;;2.63;1.63;;;37.20;35.80;;;;;;5063249;28;20466;-69
2022/07/18 11:28:15;;;;;;;2.10;1.67;;;37.40;37.90;;;;;;5066083;28;20443;-67
2022/07/18 11:30:44;;;;;;;2.03;1.50;;;37.70;36.50;;;;;;5061936;28;20551;-67
2022/07/18 11:33:30;;;;;;;5.10;2.87;;;38.00;36.20;;;;;;5068929;28;20457;-66
2022/07/18 11:36:04;;;;;;;3.13;2.17;;;38.40;36.90;;;;;;5065397;28;20448;-67
2022/07/18 11:38:31;;;;;;;3.27;2.07;;;38.60;35.10;;;;;;5065904;28;20455;-67
2022/07/18 11:40:57;;;;;;;2.53;1.70;;;38.50;35.40;;;;;;5064513;28;20942;-65
2022/07/18 11:43:25;;;;;;;3.33;1.80;;;38.10;34.80;;;;;;5068217;28;20475;-64
2022/07/18 11:46:05;;;;;;;4.43;2.00;;;37.60;33.80;;;;;;5066919;28;20924;-64
2022/07/18 11:48:32;;;;;;;4.50;2.40;;;37.00;33.00;;;;;;5067802;28;20450;-65
2022/07/18 11:50:59;;;;;;;3.97;2.30;;;36.20;35.30;;;;;;5064541;28;21005;-66
2022/07/18 11:53:26;;;;;;;2.73;1.77;;;35.80;35.90;;;;;;5060666;28;20456;-67
2022/07/18 11:55:54;;;;;;;3.80;2.20;;;35.60;35.50;;;;;;5066863;28;20451;-63
2022/07/18 11:58:22;;;;;;;2.97;2.13;;;35.60;36.60;;;;;;5064378;28;20454;-65
2022/07/18 12:00:49;;;;;;;5.40;1.93;;;35.60;35.60;;;;;;5070115;28;20489;-67
2022/07/18 12:03:20;;;;;;;4.83;2.10;;;35.10;36.50;;;;;;5070361;28;21015;-67
2022/07/18 12:05:49;;;;;;;2.30;1.83;;;35.40;36.10;;;;;;5066966;28;20590;-64
2022/07/18 12:08:35;;;;;;;3.67;2.17;;;35.80;39.00;;;;;;5064042;28;20443;-65
2022/07/18 12:11:10;;;;;;;4.40;2.10;;;36.20;39.10;;;;;;5063122;28;20458;-63
2022/07/18 12:13:45;;;;;;;3.93;2.00;;;36.60;35.60;;;;;;5071452;28;20434;-66
2022/07/18 12:16:33;;;;;;;3.50;2.17;;;35.80;35.30;;;;;;5070460;28;20454;-67
2022/07/18 12:19:07;;;;;;;3.20;2.30;;;35.00;37.40;;;;;;5064702;28;20546;-67
2022/07/18 12:21:43;;;;;;;3.23;2.40;;;34.60;37.40;;;;;;5066177;28;20500;-65
2022/07/18 12:24:30;;;;;;;3.57;2.07;;;35.00;37.80;;;;;;5069226;28;20491;-65
2022/07/18 12:27:19;;;;;;;2.90;2.03;;;35.60;38.00;;;;;;5069869;28;20992;-64
2022/07/18 12:30:08;;;;;;;3.70;2.00;;;36.50;36.40;;;;;;5070057;28;20451;-65
2022/07/18 12:32:46;;;;;;;3.07;2.33;;;37.20;36.10;;;;;;5069985;28;20443;-67
2022/07/18 12:35:17;;;;;;;3.43;2.27;;;36.70;35.20;;;;;;5071526;28;20546;-65
2022/07/18 12:37:53;;;;;;;4.03;2.10;;;36.10;35.80;;;;;;5054379;28;20457;-68
2022/07/18 12:40:20;;;;;;;3.30;1.93;;;36.50;38.70;;;;;;5071751;28;20447;-67
2022/07/18 12:42:47;;;;;;;3.27;2.37;;;37.50;38.00;;;;;;5069436;28;20575;-64
2022/07/18 12:45:15;;;;;;;2.50;2.20;;;38.40;37.70;;;;;;5068891;28;20477;-67
2022/07/18 12:47:42;;;;;;;2.93;1.90;;;39.20;36.60;;;;;;5071211;28;20443;-68
2022/07/18 12:50:10;;;;;;;4.23;2.47;;;39.80;32.00;;;;;;5069410;28;20451;-65
2022/07/18 12:52:38;;;;;;;3.23;1.70;;;40.00;34.20;;;;;;5065614;28;22407;-66
2022/07/18 12:55:06;;;;;;;3.30;2.30;;;39.80;32.60;;;;;;5069222;28;20470;-67
2022/07/18 12:57:33;;;;;;;2.93;2.20;;;40.30;35.10;;;;;;5068332;28;20463;-67